This is the latest recevied weather packets stored in our database for station/object DG0PX-12. If no packets are shown the sender has not sent any weather packets the latest 10 day(s).
| Time | Temp. | Humidity | Pressure | Rain* | Wind** | Luminosity | Snow |
|---|---|---|---|---|---|---|---|
| 1787794173 | 23.89° C | 56% | 948.5 hPa | - | - | - | - |
| 1787793273 | 22.78° C | 60% | 948.5 hPa | - | - | - | - |
| 1787792373 | 22.22° C | 64% | 948.5 hPa | - | - | - | - |
| 1787791473 | 25° C | 53% | 948.7 hPa | - | - | - | - |
| 1787790573 | 23.33° C | 61% | 948.8 hPa | - | - | - | - |
| 1787789673 | 22.78° C | 61% | 948.8 hPa | - | - | - | - |
| 1787788773 | 23.33° C | 61% | 948.7 hPa | - | - | - | - |
| 1787787872 | 23.33° C | 61% | 948.9 hPa | - | - | - | - |
| 1787786972 | 24.44° C | 58% | 949.2 hPa | - | - | - | - |
| 1787786072 | 23.33° C | 62% | 949.2 hPa | - | - | - | - |
| 1787785172 | 23.89° C | 58% | 949.3 hPa | - | - | - | - |
| 1787784272 | 25° C | 57% | 949.3 hPa | - | - | - | - |
| 1787783372 | 24.44° C | 60% | 949.3 hPa | - | - | - | - |
| 1787782472 | 25.56° C | 55% | 949.2 hPa | - | - | - | - |
| 1787781572 | 25° C | 59% | 949.3 hPa | - | - | - | - |
| 1787780672 | 25.56° C | 57% | 949.4 hPa | - | - | - | - |
| 1787779772 | 25° C | 57% | 949.5 hPa | - | - | - | - |
| 1787778872 | 26.11° C | 54% | 949.6 hPa | - | - | - | - |
| 1787777972 | 26.67° C | 51% | 949.8 hPa | - | - | - | - |
| 1787777072 | 26.11° C | 53% | 949.7 hPa | - | - | - | - |
| 1787776172 | 27.22° C | 52% | 949.4 hPa | - | - | - | - |
| 1787775272 | 27.78° C | 51% | 949.6 hPa | - | - | - | - |
| 1787774372 | 27.22° C | 52% | 949.7 hPa | - | - | - | - |
| 1787773472 | 26.67° C | 54% | 949.6 hPa | - | - | - | - |
| 1787772572 | 26.67° C | 57% | 949.7 hPa | - | - | - | - |
* Rain since midnight (hover to see other rain measurements)
** Current wind speed in m/s (hover to see current wind gust speed)